Time,TemperatureF,DewpointF,PressureIn,WindDirection,WindDirectionDegrees,WindSpeedMPH,WindSpeedGustMPH,Humidity,HourlyPrecipIn,Conditions,Clouds,dailyrainin,SoftwareType,DateUTC
2013-02-15 00:03:00,23.5,-2.0,23.83,SSE,157,0.0,0.0,32,0.00,,---,0.00,VWS V13.00,2013-02-15 07:03:00,
2013-02-15 00:08:00,22.8,-2.0,23.83,West,272,2.2,2.2,33,0.00,,---,0.00,VWS V13.00,2013-02-15 07:08:00,
2013-02-15 00:13:00,22.1,-3.2,23.83,West,280,0.0,0.0,32,0.00,,---,0.00,VWS V13.00,2013-02-15 07:13:00,
2013-02-15 00:18:00,21.6,-3.7,23.83,West,280,0.0,0.0,32,0.00,,---,0.00,VWS V13.00,2013-02-15 07:18:00,
2013-02-15 00:23:00,21.0,-3.6,23.83,West,280,0.0,0.0,33,0.00,,---,0.00,VWS V13.00,2013-02-15 07:23:00,
2013-02-15 00:28:00,20.8,-3.7,23.83,WNW,282,0.0,0.0,33,0.00,,---,0.00,VWS V13.00,2013-02-15 07:28:00,
2013-02-15 00:33:00,20.5,-4.0,23.83,West,273,3.1,4.0,33,0.00,,---,0.00,VWS V13.00,2013-02-15 07:33:00,
2013-02-15 00:38:00,20.1,-4.4,23.83,West,273,0.0,0.0,33,0.00,,---,0.00,VWS V13.00,2013-02-15 07:38:00,
2013-02-15 00:43:00,19.8,-4.7,23.83,West,271,0.0,0.0,33,0.00,,---,0.00,VWS V13.00,2013-02-15 07:43:00,
2013-02-15 00:48:00,19.4,-4.4,23.83,West,265,0.0,0.0,34,0.00,,---,0.00,VWS V13.00,2013-02-15 07:48:00,
2013-02-15 00:53:00,19.0,-4.7,23.83,West,262,0.0,0.0,34,0.00,,---,0.00,VWS V13.00,2013-02-15 07:53:00,
2013-02-15 00:58:00,18.7,-5.0,23.83,West,262,0.0,0.0,34,0.00,,---,0.00,VWS V13.00,2013-02-15 07:58:00,
2013-02-15 01:03:00,18.5,-5.2,23.83,West,262,0.0,0.0,34,0.00,,---,0.00,VWS V13.00,2013-02-15 08:03:00,
2013-02-15 01:09:00,18.1,-5.5,23.83,West,262,0.0,0.0,34,0.00,,---,0.00,VWS V13.00,2013-02-15 08:09:00,
2013-02-15 01:14:00,18.3,-4.7,23.83,West,262,0.0,0.0,35,0.00,,---,0.00,VWS V13.00,2013-02-15 08:14:00,
2013-02-15 01:19:00,18.3,-4.7,23.83,West,262,0.0,0.0,35,0.00,,---,0.00,VWS V13.00,2013-02-15 08:19:00,
2013-02-15 01:24:00,18.1,-4.9,23.83,West,262,0.0,0.0,35,0.00,,---,0.00,VWS V13.00,2013-02-15 08:24:00,
2013-02-15 01:29:00,18.0,-4.5,23.83,West,262,0.0,0.0,36,0.00,,---,0.00,VWS V13.00,2013-02-15 08:29:00,
2013-02-15 01:34:00,17.6,-4.2,23.83,West,262,0.0,0.0,37,0.00,,---,0.00,VWS V13.00,2013-02-15 08:34:00,
2013-02-15 01:39:00,17.4,-4.4,23.83,West,262,0.0,0.0,37,0.00,,---,0.00,VWS V13.00,2013-02-15 08:39:00,
2013-02-15 01:44:00,17.1,-4.7,23.83,West,262,0.0,0.0,37,0.00,,---,0.00,VWS V13.00,2013-02-15 08:44:00,
2013-02-15 01:49:00,16.9,-4.9,23.83,WSW,256,0.0,0.0,37,0.00,,---,0.00,VWS V13.00,2013-02-15 08:49:00,
2013-02-15 01:54:00,16.5,-5.2,23.83,WSW,256,0.0,0.0,37,0.00,,---,0.00,VWS V13.00,2013-02-15 08:54:00,
2013-02-15 01:59:00,16.5,-5.2,23.83,WSW,256,0.0,0.0,37,0.00,,---,0.00,VWS V13.00,2013-02-15 08:59:00,
2013-02-15 02:04:00,16.2,-5.5,23.83,WSW,256,0.0,0.0,37,0.00,,---,0.00,VWS V13.00,2013-02-15 09:04:00,
2013-02-15 02:09:00,15.8,-5.3,23.83,WSW,256,0.0,0.0,38,0.00,,---,0.00,VWS V13.00,2013-02-15 09:09:00,
2013-02-15 02:14:00,15.8,-5.3,23.83,WSW,256,0.0,0.0,38,0.00,,---,0.00,VWS V13.00,2013-02-15 09:14:00,
2013-02-15 02:19:00,15.8,-4.8,23.83,WSW,256,0.0,0.0,39,0.00,,---,0.00,VWS V13.00,2013-02-15 09:19:00,
2013-02-15 02:24:00,16.0,-5.1,23.83,WSW,256,0.0,0.0,38,0.00,,---,0.00,VWS V13.00,2013-02-15 09:24:00,
2013-02-15 02:29:00,16.3,-4.3,23.83,West,263,0.0,0.0,39,0.00,,---,0.00,VWS V13.00,2013-02-15 09:29:00,
2013-02-15 02:34:00,16.7,-3.9,23.83,WSW,252,0.0,0.0,39,0.00,,---,0.00,VWS V13.00,2013-02-15 09:34:00,
2013-02-15 02:39:00,16.7,-3.9,23.83,WSW,252,0.0,0.0,39,0.00,,---,0.00,VWS V13.00,2013-02-15 09:39:00,
2013-02-15 02:45:00,16.7,-3.9,23.83,WSW,252,0.0,0.0,39,0.00,,---,0.00,VWS V13.00,2013-02-15 09:45:00,
2013-02-15 02:50:00,16.7,-3.9,23.83,WSW,252,0.0,0.0,39,0.00,,---,0.00,VWS V13.00,2013-02-15 09:50:00,
2013-02-15 02:55:00,16.9,-3.2,23.83,WSW,252,0.0,0.0,40,0.00,,---,0.00,VWS V13.00,2013-02-15 09:55:00,
2013-02-15 03:00:00,16.9,-3.8,23.83,WSW,251,0.0,0.0,39,0.00,,---,0.00,VWS V13.00,2013-02-15 10:00:00,
2013-02-15 03:05:00,17.1,-3.1,23.83,WSW,251,0.0,0.0,40,0.00,,---,0.00,VWS V13.00,2013-02-15 10:05:00,
2013-02-15 03:10:00,17.2,-2.9,23.83,West,263,0.0,0.0,40,0.00,,---,0.00,VWS V13.00,2013-02-15 10:10:00,
2013-02-15 03:15:00,17.4,-2.8,23.83,WSW,258,0.0,0.0,40,0.00,,---,0.00,VWS V13.00,2013-02-15 10:15:00,
2013-02-15 03:20:00,17.2,-2.9,23.83,WSW,258,0.0,0.0,40,0.00,,---,0.00,VWS V13.00,2013-02-15 10:20:00,
2013-02-15 03:25:00,17.4,-2.8,23.83,WSW,258,0.0,0.0,40,0.00,,---,0.00,VWS V13.00,2013-02-15 10:25:00,
2013-02-15 03:30:00,17.4,-2.8,23.83,WSW,258,0.0,0.0,40,0.00,,---,0.00,VWS V13.00,2013-02-15 10:30:00,
2013-02-15 03:35:00,17.1,-3.1,23.83,WSW,258,0.0,0.0,40,0.00,,---,0.00,VWS V13.00,2013-02-15 10:35:00,
2013-02-15 03:40:00,17.1,-3.1,23.83,WSW,258,0.0,0.0,40,0.00,,---,0.00,VWS V13.00,2013-02-15 10:40:00,
2013-02-15 03:45:00,16.9,-3.2,23.83,WSW,258,0.0,0.0,40,0.00,,---,0.00,VWS V13.00,2013-02-15 10:45:00,
2013-02-15 03:50:00,16.9,-2.7,23.83,WSW,258,0.0,0.0,41,0.00,,---,0.00,VWS V13.00,2013-02-15 10:50:00,
2013-02-15 03:55:00,16.9,-2.2,23.83,West,263,0.0,0.0,42,0.00,,---,0.00,VWS V13.00,2013-02-15 10:55:00,
2013-02-15 04:00:00,17.1,-2.1,23.83,West,266,0.0,0.0,42,0.00,,---,0.00,VWS V13.00,2013-02-15 11:00:00,
2013-02-15 04:05:00,17.8,-1.4,23.83,West,266,0.0,0.0,42,0.00,,---,0.00,VWS V13.00,2013-02-15 11:05:00,
2013-02-15 04:10:00,18.1,-1.6,23.83,West,266,0.0,0.0,41,0.00,,---,0.00,VWS V13.00,2013-02-15 11:10:00,
2013-02-15 04:15:00,18.3,-2.0,23.83,West,266,0.0,0.0,40,0.00,,---,0.00,VWS V13.00,2013-02-15 11:15:00,
2013-02-15 04:21:00,18.3,-2.5,23.83,West,266,0.0,0.0,39,0.00,,---,0.00,VWS V13.00,2013-02-15 11:21:00,
2013-02-15 04:26:00,18.1,-2.6,23.83,West,266,0.0,0.0,39,0.00,,---,0.00,VWS V13.00,2013-02-15 11:26:00,
2013-02-15 04:31:00,18.1,-2.6,23.83,West,266,0.0,0.0,39,0.00,,---,0.00,VWS V13.00,2013-02-15 11:31:00,
2013-02-15 04:36:00,18.1,-2.6,23.83,West,266,0.0,0.0,39,0.00,,---,0.00,VWS V13.00,2013-02-15 11:36:00,
2013-02-15 04:41:00,18.3,-2.0,23.83,West,261,0.0,0.0,40,0.00,,---,0.00,VWS V13.00,2013-02-15 11:41:00,
2013-02-15 04:46:00,18.7,-1.6,23.83,West,261,0.0,0.0,40,0.00,,---,0.00,VWS V13.00,2013-02-15 11:46:00,
2013-02-15 04:51:00,18.9,-1.5,23.83,West,261,0.0,0.0,40,0.00,,---,0.00,VWS V13.00,2013-02-15 11:51:00,
2013-02-15 04:56:00,19.0,-1.3,23.83,West,267,0.0,0.0,40,0.00,,---,0.00,VWS V13.00,2013-02-15 11:56:00,
2013-02-15 05:01:00,19.2,-1.1,23.83,West,267,0.0,0.0,40,0.00,,---,0.00,VWS V13.00,2013-02-15 12:01:00,
2013-02-15 05:06:00,19.2,-1.7,23.83,West,267,0.0,0.0,39,0.00,,---,0.00,VWS V13.00,2013-02-15 12:06:00,
2013-02-15 05:11:00,19.0,-1.8,23.83,West,267,0.0,0.0,39,0.00,,---,0.00,VWS V13.00,2013-02-15 12:11:00,
2013-02-15 05:16:00,18.9,-2.5,23.83,West,267,0.0,0.0,38,0.00,,---,0.00,VWS V13.00,2013-02-15 12:16:00,
2013-02-15 05:21:00,18.5,-2.9,23.83,West,267,0.0,0.0,38,0.00,,---,0.00,VWS V13.00,2013-02-15 12:21:00,
2013-02-15 05:26:00,17.8,-3.5,23.83,West,267,0.0,0.0,38,0.00,,---,0.00,VWS V13.00,2013-02-15 12:26:00,
2013-02-15 05:31:00,17.2,-4.0,23.83,West,267,0.0,0.0,38,0.00,,---,0.00,VWS V13.00,2013-02-15 12:31:00,
2013-02-15 05:36:00,16.9,-4.3,23.83,West,267,0.0,0.0,38,0.00,,---,0.00,VWS V13.00,2013-02-15 12:36:00,
2013-02-15 05:41:00,16.7,-3.9,23.83,West,267,0.0,0.0,39,0.00,,---,0.00,VWS V13.00,2013-02-15 12:41:00,
2013-02-15 05:47:00,16.5,-4.1,23.83,West,267,0.0,0.0,39,0.00,,---,0.00,VWS V13.00,2013-02-15 12:47:00,
2013-02-15 05:52:00,16.5,-3.6,23.83,West,267,0.0,0.0,40,0.00,,---,0.00,VWS V13.00,2013-02-15 12:52:00,
2013-02-15 05:57:00,16.3,-3.7,23.83,West,267,0.0,0.0,40,0.00,,---,0.00,VWS V13.00,2013-02-15 12:57:00,
2013-02-15 06:02:00,16.5,-3.1,23.83,West,267,0.0,0.0,41,0.00,,---,0.00,VWS V13.00,2013-02-15 13:02:00,
2013-02-15 06:07:00,16.9,-2.2,23.83,West,267,0.0,0.0,42,0.00,,---,0.00,VWS V13.00,2013-02-15 13:07:00,
2013-02-15 06:12:00,17.2,-1.9,23.83,West,267,0.0,0.0,42,0.00,,---,0.00,VWS V13.00,2013-02-15 13:12:00,
2013-02-15 06:17:00,17.6,-1.1,23.83,West,267,0.0,0.0,43,0.00,,---,0.00,VWS V13.00,2013-02-15 13:17:00,
2013-02-15 06:22:00,17.8,-0.9,23.83,West,267,0.0,0.0,43,0.00,,---,0.00,VWS V13.00,2013-02-15 13:22:00,
2013-02-15 06:27:00,18.0,-1.2,23.83,West,267,0.0,0.0,42,0.00,,---,0.00,VWS V13.00,2013-02-15 13:27:00,
2013-02-15 06:32:00,18.1,-1.1,23.83,West,267,0.0,0.0,42,0.00,,---,0.00,VWS V13.00,2013-02-15 13:32:00,
2013-02-15 06:37:00,18.1,-1.1,23.83,West,267,0.0,0.0,42,0.00,,---,0.00,VWS V13.00,2013-02-15 13:37:00,
2013-02-15 06:42:00,18.3,-0.9,23.83,West,267,0.0,0.0,42,0.00,,---,0.00,VWS V13.00,2013-02-15 13:42:00,
2013-02-15 06:47:00,18.3,-1.4,23.83,West,267,0.0,0.0,41,0.00,,---,0.00,VWS V13.00,2013-02-15 13:47:00,
2013-02-15 06:52:00,18.1,-1.6,23.83,West,267,0.0,0.0,41,0.00,,---,0.00,VWS V13.00,2013-02-15 13:52:00,
2013-02-15 06:57:00,17.8,-1.9,23.83,West,267,0.0,0.0,41,0.00,,---,0.00,VWS V13.00,2013-02-15 13:57:00,
2013-02-15 07:02:00,17.6,-1.6,23.83,West,267,0.0,0.0,42,0.00,,---,0.00,VWS V13.00,2013-02-15 14:02:00,
2013-02-15 07:07:00,17.6,-1.6,23.83,West,267,0.0,0.0,42,0.00,,---,0.00,VWS V13.00,2013-02-15 14:07:00,
2013-02-15 07:12:00,17.1,-2.1,23.83,West,267,0.0,0.0,42,0.00,,---,0.00,VWS V13.00,2013-02-15 14:12:00,
2013-02-15 07:17:00,16.7,-2.4,23.83,West,267,0.0,0.0,42,0.00,,---,0.00,VWS V13.00,2013-02-15 14:17:00,
2013-02-15 07:23:00,16.7,-1.9,23.83,West,267,0.0,0.0,43,0.00,,---,0.00,VWS V13.00,2013-02-15 14:23:00,
2013-02-15 07:28:00,17.1,-1.1,23.83,West,267,0.0,0.0,44,0.00,,---,0.00,VWS V13.00,2013-02-15 14:28:00,
2013-02-15 07:33:00,17.4,-0.8,23.83,West,267,0.0,0.0,44,0.00,,---,0.00,VWS V13.00,2013-02-15 14:33:00,
2013-02-15 07:38:00,17.8,-0.4,23.83,West,267,0.0,0.0,44,0.00,,---,0.00,VWS V13.00,2013-02-15 14:38:00,
2013-02-15 07:43:00,18.5,0.2,23.83,West,267,0.0,0.0,44,0.00,,---,0.00,VWS V13.00,2013-02-15 14:43:00,
2013-02-15 07:48:00,19.2,0.9,23.83,West,267,0.0,0.0,44,0.00,,---,0.00,VWS V13.00,2013-02-15 14:48:00,
2013-02-15 07:53:00,19.8,0.9,23.83,West,267,0.0,0.0,43,0.00,,---,0.00,VWS V13.00,2013-02-15 14:53:00,
2013-02-15 07:58:00,20.1,1.2,23.83,West,267,0.0,0.0,43,0.00,,---,0.00,VWS V13.00,2013-02-15 14:58:00,
2013-02-15 08:03:00,20.5,1.5,23.83,West,267,0.0,0.0,43,0.00,,---,0.00,VWS V13.00,2013-02-15 15:03:00,
2013-02-15 08:08:00,20.8,1.4,23.83,West,267,0.0,0.0,42,0.00,,---,0.00,VWS V13.00,2013-02-15 15:08:00,
2013-02-15 08:13:00,21.4,0.8,23.83,West,267,0.0,0.0,40,0.00,,---,0.00,VWS V13.00,2013-02-15 15:13:00,
2013-02-15 08:18:00,21.9,0.2,23.83,West,267,0.0,2.2,38,0.00,,---,0.00,VWS V13.00,2013-02-15 15:18:00,
2013-02-15 08:23:00,22.6,0.3,23.83,West,267,0.0,0.0,37,0.00,,---,0.00,VWS V13.00,2013-02-15 15:23:00,
2013-02-15 08:28:00,22.6,-0.3,23.83,West,267,0.0,0.0,36,0.00,,---,0.00,VWS V13.00,2013-02-15 15:28:00,
2013-02-15 08:33:00,22.3,-0.6,23.83,West,267,0.0,2.2,36,0.00,,---,0.00,VWS V13.00,2013-02-15 15:33:00,
2013-02-15 08:38:00,21.9,-1.5,23.83,West,267,0.0,0.0,35,0.00,,---,0.00,VWS V13.00,2013-02-15 15:38:00,
2013-02-15 08:43:00,21.4,-2.0,23.83,West,267,0.0,0.0,35,0.00,,---,0.00,VWS V13.00,2013-02-15 15:43:00,
2013-02-15 08:49:00,21.0,-1.7,23.83,West,267,0.0,0.0,36,0.00,,---,0.00,VWS V13.00,2013-02-15 15:49:00,
2013-02-15 08:54:00,21.0,-1.7,23.83,WSW,238,0.0,0.0,36,0.00,,---,0.00,VWS V13.00,2013-02-15 15:54:00,
2013-02-15 08:59:00,21.0,-1.7,23.83,WSW,238,0.0,0.0,36,0.00,,---,0.00,VWS V13.00,2013-02-15 15:59:00,
2013-02-15 09:04:00,21.2,-1.6,23.83,WSW,238,0.0,0.0,36,0.00,,---,0.00,VWS V13.00,2013-02-15 16:04:00,
2013-02-15 09:09:00,21.7,-1.1,23.83,WSW,238,0.0,0.0,36,0.00,,---,0.00,VWS V13.00,2013-02-15 16:09:00,
2013-02-15 09:14:00,22.6,-0.3,23.83,SW,220,0.0,0.0,36,0.00,,---,0.00,VWS V13.00,2013-02-15 16:14:00,
2013-02-15 09:19:00,23.5,0.5,23.83,SSE,165,0.0,0.0,36,0.00,,---,0.00,VWS V13.00,2013-02-15 16:19:00,
2013-02-15 09:24:00,24.4,0.1,23.83,West,263,2.7,2.7,34,0.00,,---,0.00,VWS V13.00,2013-02-15 16:24:00,
2013-02-15 09:29:00,25.3,0.3,23.83,West,270,3.1,3.1,33,0.00,,---,0.00,VWS V13.00,2013-02-15 16:29:00,
2013-02-15 09:34:00,25.9,0.1,23.83,West,263,0.0,2.2,32,0.00,,---,0.00,VWS V13.00,2013-02-15 16:34:00,
2013-02-15 09:39:00,26.1,0.2,23.83,WSW,248,0.0,0.0,32,0.00,,---,0.00,VWS V13.00,2013-02-15 16:39:00,
2013-02-15 09:44:00,27.7,1.7,23.83,WSW,239,0.0,0.0,32,0.00,,---,0.00,VWS V13.00,2013-02-15 16:44:00,
2013-02-15 09:49:00,28.9,2.8,23.83,ESE,112,0.0,0.0,32,0.00,,---,0.00,VWS V13.00,2013-02-15 16:49:00,
2013-02-15 09:54:00,30.2,3.2,23.83,WSW,244,2.2,2.7,31,0.00,,---,0.00,VWS V13.00,2013-02-15 16:54:00,
2013-02-15 09:59:00,30.7,3.0,23.83,West,278,2.7,4.0,30,0.00,,---,0.00,VWS V13.00,2013-02-15 16:59:00,
2013-02-15 10:04:00,31.8,3.9,23.83,SE,144,0.0,0.0,30,0.00,,---,0.00,VWS V13.00,2013-02-15 17:04:00,
2013-02-15 10:09:00,32.7,4.7,23.83,SE,135,0.0,0.0,30,0.00,,---,0.00,VWS V13.00,2013-02-15 17:09:00,
2013-02-15 10:14:00,33.4,3.8,23.83,West,280,0.0,0.0,28,0.00,,---,0.00,VWS V13.00,2013-02-15 17:14:00,
2013-02-15 10:20:00,34.0,3.5,23.83,WSW,250,3.6,3.6,27,0.00,,---,0.00,VWS V13.00,2013-02-15 17:20:00,
2013-02-15 10:25:00,34.7,2.5,23.83,SW,225,0.0,0.0,25,0.00,,---,0.00,VWS V13.00,2013-02-15 17:25:00,
2013-02-15 10:30:00,35.4,3.1,23.83,West,262,3.1,3.1,25,0.00,,---,0.00,VWS V13.00,2013-02-15 17:30:00,
2013-02-15 10:35:00,35.8,2.5,23.83,West,260,2.2,3.6,24,0.00,,---,0.00,VWS V13.00,2013-02-15 17:35:00,
2013-02-15 10:40:00,36.0,2.7,23.83,ESE,108,0.0,3.1,24,0.00,,---,0.00,VWS V13.00,2013-02-15 17:40:00,
2013-02-15 10:45:00,36.3,1.1,23.83,WSW,240,0.0,0.0,22,0.00,,---,0.00,VWS V13.00,2013-02-15 17:45:00,
2013-02-15 10:50:00,37.2,3.8,23.83,WSW,241,0.0,0.0,24,0.00,,---,0.00,VWS V13.00,2013-02-15 17:50:00,
2013-02-15 10:55:00,37.6,1.2,23.83,WSW,247,4.0,4.0,21,0.00,,---,0.00,VWS V13.00,2013-02-15 17:55:00,
2013-02-15 11:00:00,37.9,1.5,23.83,WSW,258,0.0,0.0,21,0.00,,---,0.00,VWS V13.00,2013-02-15 18:00:00,
2013-02-15 11:05:00,37.8,1.4,23.83,West,263,3.6,7.6,21,0.00,,---,0.00,VWS V13.00,2013-02-15 18:05:00,
2013-02-15 11:10:00,37.6,1.2,23.83,South,174,2.2,2.2,21,0.00,,---,0.00,VWS V13.00,2013-02-15 18:10:00,
2013-02-15 11:15:00,36.3,1.1,23.83,West,269,4.0,4.0,22,0.00,,---,0.00,VWS V13.00,2013-02-15 18:15:00,
2013-02-15 11:20:00,36.3,1.1,23.83,WNW,300,3.1,3.1,22,0.00,,---,0.00,VWS V13.00,2013-02-15 18:20:00,
2013-02-15 11:25:00,36.3,1.1,23.83,WNW,299,3.1,5.4,22,0.00,,---,0.00,VWS V13.00,2013-02-15 18:25:00,
2013-02-15 11:30:00,37.2,1.9,23.83,West,261,3.1,3.1,22,0.00,,---,0.00,VWS V13.00,2013-02-15 18:30:00,
2013-02-15 11:35:00,37.4,1.0,23.83,West,268,3.6,4.9,21,0.00,,---,0.00,VWS V13.00,2013-02-15 18:35:00,
2013-02-15 11:40:00,37.9,1.5,23.83,WSW,253,3.6,4.9,21,0.00,,---,0.00,VWS V13.00,2013-02-15 18:40:00,
2013-02-15 11:45:00,38.8,2.3,23.83,WSW,250,3.1,5.4,21,0.00,,---,0.00,VWS V13.00,2013-02-15 18:45:00,
2013-02-15 11:51:00,40.1,3.3,23.83,West,263,2.7,2.7,21,0.00,,---,0.00,VWS V13.00,2013-02-15 18:51:00,
2013-02-15 11:56:00,39.9,3.2,23.83,SW,216,2.7,5.4,21,0.00,,---,0.00,VWS V13.00,2013-02-15 18:56:00,
2013-02-15 12:01:00,38.8,2.3,23.83,West,281,3.1,5.8,21,0.00,,---,0.00,VWS V13.00,2013-02-15 19:01:00,
2013-02-15 12:06:00,39.2,2.6,23.83,WSW,247,3.6,5.8,21,0.00,,---,0.00,VWS V13.00,2013-02-15 19:06:00,
2013-02-15 12:11:00,39.4,2.7,23.83,West,267,2.7,3.1,21,0.00,,---,0.00,VWS V13.00,2013-02-15 19:11:00,
2013-02-15 12:16:00,38.5,-0.2,23.83,WNW,286,2.7,5.4,19,0.00,,---,0.00,VWS V13.00,2013-02-15 19:16:00,
2013-02-15 12:21:00,37.9,1.5,23.83,West,259,3.6,5.8,21,0.00,,---,0.00,VWS V13.00,2013-02-15 19:21:00,
2013-02-15 12:26:00,37.8,-0.8,23.83,West,263,5.8,6.3,19,0.00,,---,0.00,VWS V13.00,2013-02-15 19:26:00,
2013-02-15 12:31:00,37.8,-0.8,23.83,WSW,239,8.1,8.1,19,0.00,,---,0.00,VWS V13.00,2013-02-15 19:31:00,
2013-02-15 12:36:00,37.9,-0.6,23.83,NW,319,3.6,6.3,19,0.00,,---,0.00,VWS V13.00,2013-02-15 19:36:00,
2013-02-15 12:41:00,37.8,1.4,23.83,West,267,5.4,5.8,21,0.00,,---,0.00,VWS V13.00,2013-02-15 19:41:00,
2013-02-15 12:46:00,37.9,1.5,23.83,WSW,252,4.0,5.8,21,0.00,,---,0.00,VWS V13.00,2013-02-15 19:46:00,
2013-02-15 12:51:00,38.1,1.6,23.83,West,263,5.8,6.3,21,0.00,,---,0.00,VWS V13.00,2013-02-15 19:51:00,
2013-02-15 12:56:00,38.3,1.8,23.83,West,265,5.8,8.3,21,0.00,,---,0.00,VWS V13.00,2013-02-15 19:56:00,
2013-02-15 13:02:00,38.7,2.1,23.83,WSW,238,3.1,4.0,21,0.00,,---,0.00,VWS V13.00,2013-02-15 20:02:00,
2013-02-15 13:07:00,38.8,0.1,23.83,West,281,4.0,5.8,19,0.00,,---,0.00,VWS V13.00,2013-02-15 20:07:00,
2013-02-15 13:12:00,39.2,-0.7,23.83,West,261,3.6,3.6,18,0.00,,---,0.00,VWS V13.00,2013-02-15 20:12:00,
2013-02-15 13:17:00,39.6,-0.4,23.83,West,272,4.0,5.4,18,0.00,,---,0.00,VWS V13.00,2013-02-15 20:17:00,
2013-02-15 13:22:00,39.7,-0.3,23.83,West,266,2.7,5.8,18,0.00,,---,0.00,VWS V13.00,2013-02-15 20:22:00,
2013-02-15 13:27:00,39.7,-0.3,23.83,West,262,3.1,5.8,18,0.00,,---,0.00,VWS V13.00,2013-02-15 20:27:00,
2013-02-15 13:32:00,39.9,-0.1,23.83,WSW,258,0.0,2.7,18,0.00,,---,0.00,VWS V13.00,2013-02-15 20:32:00,
2013-02-15 13:37:00,40.6,0.5,23.83,West,266,2.7,3.1,18,0.00,,---,0.00,VWS V13.00,2013-02-15 20:37:00,
2013-02-15 13:42:00,41.4,1.0,23.83,West,259,5.8,5.8,18,0.00,,---,0.00,VWS V13.00,2013-02-15 20:42:00,
2013-02-15 13:47:00,41.7,1.4,23.83,West,260,6.3,6.7,18,0.00,,---,0.00,VWS V13.00,2013-02-15 20:47:00,
2013-02-15 13:52:00,42.1,1.6,23.83,West,259,3.6,4.9,18,0.00,,---,0.00,VWS V13.00,2013-02-15 20:52:00,
2013-02-15 13:57:00,41.9,1.5,23.83,West,262,3.1,5.8,18,0.00,,---,0.00,VWS V13.00,2013-02-15 20:57:00,
2013-02-15 14:03:00,42.3,1.8,23.83,WNW,297,2.7,3.1,18,0.00,,---,0.00,VWS V13.00,2013-02-15 21:03:00,
2013-02-15 14:08:00,42.4,1.9,23.83,West,259,2.7,8.3,18,0.00,,---,0.00,VWS V13.00,2013-02-15 21:08:00,
2013-02-15 14:13:00,42.1,1.6,23.83,WSW,245,5.4,6.3,18,0.00,,---,0.00,VWS V13.00,2013-02-15 21:13:00,
2013-02-15 14:18:00,41.2,0.9,23.83,WNW,291,3.1,5.8,18,0.00,,---,0.00,VWS V13.00,2013-02-15 21:18:00,
2013-02-15 14:23:00,39.6,-0.4,23.83,West,271,3.1,4.0,18,0.00,,---,0.00,VWS V13.00,2013-02-15 21:23:00,
2013-02-15 14:28:00,38.5,-0.2,23.83,WSW,255,2.2,2.7,19,0.00,,---,0.00,VWS V13.00,2013-02-15 21:28:00,
2013-02-15 14:33:00,38.1,-0.5,23.83,WSW,240,5.8,5.8,19,0.00,,---,0.00,VWS V13.00,2013-02-15 21:33:00,
2013-02-15 14:38:00,37.6,-0.9,23.83,West,263,5.8,5.8,19,0.00,,---,0.00,VWS V13.00,2013-02-15 21:38:00,
2013-02-15 14:43:00,37.4,-1.1,23.83,West,263,3.1,3.6,19,0.00,,---,0.00,VWS V13.00,2013-02-15 21:43:00,
2013-02-15 14:48:00,37.4,-1.1,23.83,West,262,2.2,3.1,19,0.00,,---,0.00,VWS V13.00,2013-02-15 21:48:00,
2013-02-15 14:53:00,37.4,-1.1,23.83,NW,314,3.6,5.4,19,0.00,,---,0.00,VWS V13.00,2013-02-15 21:53:00,
2013-02-15 14:58:00,37.6,-0.9,23.83,NW,321,0.0,0.0,19,0.00,,---,0.00,VWS V13.00,2013-02-15 21:58:00,
2013-02-15 15:03:00,37.9,-0.6,23.83,WSW,250,3.1,5.4,19,0.00,,---,0.00,VWS V13.00,2013-02-15 22:03:00,
2013-02-15 15:09:00,37.6,-0.9,23.83,West,263,2.7,4.9,19,0.00,,---,0.00,VWS V13.00,2013-02-15 22:09:00,
2013-02-15 15:14:00,37.4,-1.1,23.83,West,267,5.4,5.4,19,0.00,,---,0.00,VWS V13.00,2013-02-15 22:14:00,
2013-02-15 15:19:00,37.0,-1.4,23.83,West,272,6.3,6.3,19,0.00,,---,0.00,VWS V13.00,2013-02-15 22:19:00,
2013-02-15 15:24:00,36.3,-2.0,23.83,WSW,238,3.6,4.9,19,0.00,,---,0.00,VWS V13.00,2013-02-15 22:24:00,
2013-02-15 15:29:00,35.8,-2.4,23.83,West,279,0.0,3.1,19,0.00,,---,0.00,VWS V13.00,2013-02-15 22:29:00,
2013-02-15 15:34:00,36.0,-2.3,23.83,West,271,3.6,4.9,19,0.00,,---,0.00,VWS V13.00,2013-02-15 22:34:00,
2013-02-15 15:39:00,36.1,-2.1,23.83,West,265,4.0,4.9,19,0.00,,---,0.00,VWS V13.00,2013-02-15 22:39:00,
2013-02-15 15:44:00,36.3,-2.0,23.83,West,272,2.7,5.4,19,0.00,,---,0.00,VWS V13.00,2013-02-15 22:44:00,
2013-02-15 15:49:00,36.3,-2.0,23.83,WNW,295,4.0,7.6,19,0.00,,---,0.00,VWS V13.00,2013-02-15 22:49:00,
2013-02-15 15:54:00,36.3,-2.0,23.83,West,274,3.1,4.0,19,0.00,,---,0.00,VWS V13.00,2013-02-15 22:54:00,
2013-02-15 15:59:00,36.3,-2.0,23.83,West,267,3.1,4.9,19,0.00,,---,0.00,VWS V13.00,2013-02-15 22:59:00,
2013-02-15 16:04:00,36.1,-2.1,23.83,West,263,4.0,4.9,19,0.00,,---,0.00,VWS V13.00,2013-02-15 23:04:00,
2013-02-15 16:10:00,36.0,-2.3,23.83,West,265,4.0,4.0,19,0.00,,---,0.00,VWS V13.00,2013-02-15 23:10:00,
2013-02-15 16:15:00,35.8,-2.4,23.83,WSW,257,3.6,4.9,19,0.00,,---,0.00,VWS V13.00,2013-02-15 23:15:00,
2013-02-15 16:20:00,35.6,-2.6,23.83,West,267,3.6,4.0,19,0.00,,---,0.00,VWS V13.00,2013-02-15 23:20:00,
2013-02-15 16:25:00,35.6,-2.6,23.83,West,271,3.6,4.0,19,0.00,,---,0.00,VWS V13.00,2013-02-15 23:25:00,
2013-02-15 16:30:00,35.4,-1.6,23.83,WSW,258,4.9,4.9,20,0.00,,---,0.00,VWS V13.00,2013-02-15 23:30:00,
2013-02-15 16:35:00,35.1,-2.0,23.83,West,268,4.0,4.9,20,0.00,,---,0.00,VWS V13.00,2013-02-15 23:35:00,
2013-02-15 16:40:00,34.9,-2.1,23.83,West,276,3.6,3.6,20,0.00,,---,0.00,VWS V13.00,2013-02-15 23:40:00,
2013-02-15 16:45:00,34.3,-2.6,23.83,WSW,258,2.2,3.1,20,0.00,,---,0.00,VWS V13.00,2013-02-15 23:45:00,
2013-02-15 16:50:00,33.8,-3.0,23.83,West,265,2.7,2.7,20,0.00,,---,0.00,VWS V13.00,2013-02-15 23:50:00,
2013-02-15 16:55:00,33.4,-3.3,23.83,West,262,4.0,4.0,20,0.00,,---,0.00,VWS V13.00,2013-02-15 23:55:00,
2013-02-15 17:00:00,33.1,-3.6,23.83,West,268,3.6,4.0,20,0.00,,---,0.00,VWS V13.00,2013-02-16 00:00:00,
2013-02-15 17:05:00,32.7,-3.9,23.83,West,263,2.7,2.7,20,0.00,,---,0.00,VWS V13.00,2013-02-16 00:05:00,
2013-02-15 17:10:00,32.2,-4.4,23.83,West,265,0.0,0.0,20,0.00,,---,0.00,VWS V13.00,2013-02-16 00:10:00,
2013-02-15 17:15:00,31.3,-5.1,23.83,West,265,0.0,0.0,20,0.00,,---,0.00,VWS V13.00,2013-02-16 00:15:00,
2013-02-15 17:21:00,30.7,-5.6,23.83,West,265,0.0,0.0,20,0.00,,---,0.00,VWS V13.00,2013-02-16 00:21:00,
2013-02-15 17:26:00,30.2,-6.0,23.83,West,265,0.0,0.0,20,0.00,,---,0.00,VWS V13.00,2013-02-16 00:26:00,
2013-02-15 17:31:00,30.0,-6.2,23.83,West,265,0.0,0.0,20,0.00,,---,0.00,VWS V13.00,2013-02-16 00:31:00,
2013-02-15 17:36:00,29.7,-6.5,23.83,West,265,0.0,0.0,20,0.00,,---,0.00,VWS V13.00,2013-02-16 00:36:00,
2013-02-15 17:41:00,29.5,-6.6,23.83,West,265,0.0,0.0,20,0.00,,---,0.00,VWS V13.00,2013-02-16 00:41:00,
2013-02-15 17:46:00,29.5,-6.6,23.83,West,265,2.2,2.2,20,0.00,,---,0.00,VWS V13.00,2013-02-16 00:46:00,
2013-02-15 17:51:00,28.9,-7.1,23.83,West,265,0.0,0.0,20,0.00,,---,0.00,VWS V13.00,2013-02-16 00:51:00,
2013-02-15 17:56:00,28.2,-6.7,23.83,West,265,0.0,2.2,21,0.00,,---,0.00,VWS V13.00,2013-02-16 00:56:00,
2013-02-15 18:01:00,27.7,-7.2,23.83,West,268,0.0,3.1,21,0.00,,---,0.00,VWS V13.00,2013-02-16 01:01:00,
2013-02-15 18:06:00,27.1,-7.6,23.83,West,268,0.0,0.0,21,0.00,,---,0.00,VWS V13.00,2013-02-16 01:06:00,
2013-02-15 18:11:00,27.0,-7.8,23.83,West,268,0.0,0.0,21,0.00,,---,0.00,VWS V13.00,2013-02-16 01:11:00,
2013-02-15 18:17:00,26.6,-8.1,23.83,West,268,0.0,0.0,21,0.00,,---,0.00,VWS V13.00,2013-02-16 01:17:00,
2013-02-15 18:22:00,26.4,-8.2,23.83,West,268,0.0,0.0,21,0.00,,---,0.00,VWS V13.00,2013-02-16 01:22:00,
2013-02-15 18:27:00,26.2,-8.4,23.83,West,268,0.0,0.0,21,0.00,,---,0.00,VWS V13.00,2013-02-16 01:27:00,
2013-02-15 18:32:00,26.2,-8.4,23.83,West,268,0.0,0.0,21,0.00,,---,0.00,VWS V13.00,2013-02-16 01:32:00,
2013-02-15 18:37:00,26.2,-5.6,23.83,West,268,0.0,0.0,24,0.00,,---,0.00,VWS V13.00,2013-02-16 01:37:00,
2013-02-15 18:42:00,25.9,-5.9,23.83,West,268,0.0,0.0,24,0.00,,---,0.00,VWS V13.00,2013-02-16 01:42:00,
2013-02-15 18:47:00,25.5,-6.2,23.83,North,353,0.0,2.7,24,0.00,,---,0.00,VWS V13.00,2013-02-16 01:47:00,
2013-02-15 18:52:00,25.3,-6.4,23.83,WNW,287,0.0,0.0,24,0.00,,---,0.00,VWS V13.00,2013-02-16 01:52:00,
2013-02-15 18:57:00,25.2,-6.6,23.83,NW,321,0.0,0.0,24,0.00,,---,0.00,VWS V13.00,2013-02-16 01:57:00,
2013-02-15 19:02:00,25.0,-6.7,23.83,NNW,328,0.0,0.0,24,0.00,,---,0.00,VWS V13.00,2013-02-16 02:02:00,
2013-02-15 19:07:00,24.8,-6.9,23.83,North,0,0.0,0.0,24,0.00,,---,0.00,VWS V13.00,2013-02-16 02:07:00,
2013-02-15 19:12:00,25.0,-6.7,23.83,WNW,291,0.0,0.0,24,0.00,,---,0.00,VWS V13.00,2013-02-16 02:12:00,
2013-02-15 19:17:00,25.0,-6.7,23.83,WNW,285,0.0,0.0,24,0.00,,---,0.00,VWS V13.00,2013-02-16 02:17:00,
2013-02-15 19:23:00,24.8,-6.9,23.83,West,280,2.2,2.2,24,0.00,,---,0.00,VWS V13.00,2013-02-16 02:23:00,
2013-02-15 19:28:00,24.4,-7.2,23.83,West,280,0.0,0.0,24,0.00,,---,0.00,VWS V13.00,2013-02-16 02:28:00,
2013-02-15 19:33:00,23.9,-7.6,23.83,West,280,0.0,0.0,24,0.00,,---,0.00,VWS V13.00,2013-02-16 02:33:00,
2013-02-15 19:38:00,23.5,-7.9,23.83,West,280,0.0,0.0,24,0.00,,---,0.00,VWS V13.00,2013-02-16 02:38:00,
2013-02-15 19:43:00,23.2,-8.2,23.83,West,280,0.0,0.0,24,0.00,,---,0.00,VWS V13.00,2013-02-16 02:43:00,
2013-02-15 19:48:00,23.2,-5.8,23.83,West,280,0.0,0.0,27,0.00,,---,0.00,VWS V13.00,2013-02-16 02:48:00,
2013-02-15 19:53:00,22.8,-6.1,23.83,West,280,0.0,0.0,27,0.00,,---,0.00,VWS V13.00,2013-02-16 02:53:00,
2013-02-15 19:58:00,22.6,-6.3,23.83,West,280,2.2,2.2,27,0.00,,---,0.00,VWS V13.00,2013-02-16 02:58:00,
2013-02-15 20:03:00,22.3,-6.6,23.83,West,271,0.0,0.0,27,0.00,,---,0.00,VWS V13.00,2013-02-16 03:03:00,
2013-02-15 20:08:00,22.1,-6.8,23.83,West,271,0.0,0.0,27,0.00,,---,0.00,VWS V13.00,2013-02-16 03:08:00,
2013-02-15 20:13:00,21.9,-6.9,23.83,West,271,0.0,0.0,27,0.00,,---,0.00,VWS V13.00,2013-02-16 03:13:00,
2013-02-15 20:18:00,21.6,-5.1,23.83,West,271,0.0,0.0,30,0.00,,---,0.00,VWS V13.00,2013-02-16 03:18:00,
2013-02-15 20:23:00,21.6,-5.1,23.83,West,271,0.0,0.0,30,0.00,,---,0.00,VWS V13.00,2013-02-16 03:23:00,
2013-02-15 20:28:00,21.6,-3.7,23.83,West,271,0.0,0.0,32,0.00,,---,0.00,VWS V13.00,2013-02-16 03:28:00,
2013-02-15 20:33:00,21.4,-3.9,23.83,West,271,0.0,0.0,32,0.00,,---,0.00,VWS V13.00,2013-02-16 03:33:00,
2013-02-15 20:38:00,21.2,-3.4,23.83,West,271,0.0,0.0,33,0.00,,---,0.00,VWS V13.00,2013-02-16 03:38:00,
2013-02-15 20:43:00,20.8,-3.7,23.83,West,268,0.0,0.0,33,0.00,,---,0.00,VWS V13.00,2013-02-16 03:43:00,
2013-02-15 20:48:00,20.8,-3.7,23.83,WNW,290,0.0,0.0,33,0.00,,---,0.00,VWS V13.00,2013-02-16 03:48:00,
2013-02-15 20:54:00,20.5,-4.0,23.83,WNW,290,0.0,0.0,33,0.00,,---,0.00,VWS V13.00,2013-02-16 03:54:00,
2013-02-15 20:59:00,20.5,-4.0,23.83,WNW,290,0.0,0.0,33,0.00,,---,0.00,VWS V13.00,2013-02-16 03:59:00,
2013-02-15 21:04:00,20.1,-4.4,23.83,WNW,290,0.0,0.0,33,0.00,,---,0.00,VWS V13.00,2013-02-16 04:04:00,
2013-02-15 21:09:00,19.8,-4.7,23.83,WNW,290,0.0,0.0,33,0.00,,---,0.00,VWS V13.00,2013-02-16 04:09:00,
2013-02-15 21:14:00,19.4,-5.0,23.83,WNW,283,0.0,0.0,33,0.00,,---,0.00,VWS V13.00,2013-02-16 04:14:00,
2013-02-15 21:19:00,19.4,-5.0,23.83,WNW,283,0.0,0.0,33,0.00,,---,0.00,VWS V13.00,2013-02-16 04:19:00,
2013-02-15 21:24:00,19.2,-5.2,23.83,WNW,282,0.0,0.0,33,0.00,,---,0.00,VWS V13.00,2013-02-16 04:24:00,
2013-02-15 21:29:00,19.0,-5.3,23.83,WNW,282,0.0,0.0,33,0.00,,---,0.00,VWS V13.00,2013-02-16 04:29:00,
2013-02-15 21:34:00,18.7,-5.0,23.83,WNW,282,0.0,0.0,34,0.00,,---,0.00,VWS V13.00,2013-02-16 04:34:00,
2013-02-15 21:39:00,18.5,-5.2,23.83,WNW,282,0.0,0.0,34,0.00,,---,0.00,VWS V13.00,2013-02-16 04:39:00,
2013-02-15 21:44:00,18.3,-5.3,23.83,WNW,282,0.0,0.0,34,0.00,,---,0.00,VWS V13.00,2013-02-16 04:44:00,
2013-02-15 21:49:00,18.3,-5.3,23.83,WNW,282,0.0,0.0,34,0.00,,---,0.00,VWS V13.00,2013-02-16 04:49:00,
2013-02-15 21:54:00,18.1,-5.5,23.83,WNW,282,0.0,0.0,34,0.00,,---,0.00,VWS V13.00,2013-02-16 04:54:00,
2013-02-15 21:59:00,17.8,-5.8,23.83,WNW,282,0.0,0.0,34,0.00,,---,0.00,VWS V13.00,2013-02-16 04:59:00,
2013-02-15 22:00:00,17.8,-5.8,23.83,WNW,282,0.0,0.0,34,0.00,,---,0.00,VWS V13.00,2013-02-16 05:00:00,
2013-02-15 22:01:00,17.8,-5.8,23.83,WNW,282,0.0,0.0,34,0.00,,---,0.00,VWS V13.00,2013-02-16 05:01:00,
2013-02-15 22:06:00,17.6,-6.0,23.83,WNW,282,0.0,0.0,34,0.00,,---,0.00,VWS V13.00,2013-02-16 05:06:00,
2013-02-15 22:11:00,17.6,-6.0,23.83,WNW,282,0.0,0.0,34,0.00,,---,0.00,VWS V13.00,2013-02-16 05:11:00,
2013-02-15 22:16:00,17.2,-6.3,23.83,WNW,282,0.0,0.0,34,0.00,,---,0.00,VWS V13.00,2013-02-16 05:16:00,
2013-02-15 22:21:00,16.9,-6.6,23.83,WNW,282,0.0,0.0,34,0.00,,---,0.00,VWS V13.00,2013-02-16 05:21:00,
2013-02-15 22:26:00,16.7,-6.8,23.83,WNW,282,0.0,0.0,34,0.00,,---,0.00,VWS V13.00,2013-02-16 05:26:00,
2013-02-15 22:31:00,16.5,-6.3,23.83,WNW,282,0.0,0.0,35,0.00,,---,0.00,VWS V13.00,2013-02-16 05:31:00,
2013-02-15 22:36:00,16.3,-6.5,23.83,WNW,282,0.0,0.0,35,0.00,,---,0.00,VWS V13.00,2013-02-16 05:36:00,
2013-02-15 22:41:00,16.2,-6.7,23.83,WNW,282,0.0,0.0,35,0.00,,---,0.00,VWS V13.00,2013-02-16 05:41:00,
2013-02-15 22:46:00,16.2,-6.7,23.83,WSW,244,0.0,0.0,35,0.00,,---,0.00,VWS V13.00,2013-02-16 05:46:00,
2013-02-15 22:51:00,16.0,-6.8,23.83,WSW,244,0.0,0.0,35,0.00,,---,0.00,VWS V13.00,2013-02-16 05:51:00,
2013-02-15 22:56:00,15.8,-6.4,23.83,WSW,244,0.0,0.0,36,0.00,,---,0.00,VWS V13.00,2013-02-16 05:56:00,
2013-02-15 23:01:00,15.6,-6.6,23.83,WSW,244,0.0,0.0,36,0.00,,---,0.00,VWS V13.00,2013-02-16 06:01:00,
2013-02-15 23:06:00,15.4,-6.7,23.83,WSW,244,0.0,0.0,36,0.00,,---,0.00,VWS V13.00,2013-02-16 06:06:00,
2013-02-15 23:11:00,15.1,-7.1,23.83,WSW,244,0.0,0.0,36,0.00,,---,0.00,VWS V13.00,2013-02-16 06:11:00,
2013-02-15 23:16:00,15.1,-7.1,23.83,WSW,246,0.0,0.0,36,0.00,,---,0.00,VWS V13.00,2013-02-16 06:16:00,
2013-02-15 23:22:00,14.9,-6.7,23.83,WSW,246,0.0,0.0,37,0.00,,---,0.00,VWS V13.00,2013-02-16 06:22:00,
2013-02-15 23:27:00,14.7,-6.8,23.83,WSW,246,0.0,0.0,37,0.00,,---,0.00,VWS V13.00,2013-02-16 06:27:00,
2013-02-15 23:32:00,14.5,-7.0,23.83,WSW,246,0.0,0.0,37,0.00,,---,0.00,VWS V13.00,2013-02-16 06:32:00,
2013-02-15 23:37:00,14.2,-7.3,23.83,WSW,246,0.0,0.0,37,0.00,,---,0.00,VWS V13.00,2013-02-16 06:37:00,
2013-02-15 23:42:00,14.0,-7.5,23.83,WSW,245,0.0,0.0,37,0.00,,---,0.00,VWS V13.00,2013-02-16 06:42:00,
2013-02-15 23:47:00,13.8,-7.1,23.83,WSW,245,0.0,0.0,38,0.00,,---,0.00,VWS V13.00,2013-02-16 06:47:00,
2013-02-15 23:52:00,13.6,-7.2,23.83,WSW,245,0.0,0.0,38,0.00,,---,0.00,VWS V13.00,2013-02-16 06:52:00,
2013-02-15 23:57:00,13.5,-7.4,23.83,West,281,0.0,0.0,38,0.00,,---,0.00,VWS V13.00,2013-02-16 06:57:00,